メインページ
METAR-TAF:

METAR-TAF

空港 :

コナ国際空港

カイルア・コナ, ハワイ州, アメリカ合衆国

緯度: 19-44-27N, 経度: 156-03-02W, 海抜: 13m

現時点の気象観測

当レポートは1時間12分前の13:53(UTC)に作成
東/南東の風 5kt
気温 22°C
湿度 65%
気圧 1019 hPa
視程: 16.1km
高度6000ftの雲は散在している

METAR: PHKO 181353Z AUTO 11005KT 10SM SCT060 22/15 A3008 RMK AO2 SLP186 T02170150 TSNO

時間: 05:05 (15:05 UTC)

予報

当レポートは3時間30分前の11:35(UTC)に作成
予報は18日の 12時(UTC)から 19日の 12時(UTC)まで有効
変向風 3kt
視程: 10km
高度25000ftの雲は散在している
18日の 2100時(UTC)から
西の風 10kt
視程: 10km
高度5000ftの雲は散在している
高度25000ftの雲は散在している
19日の 0500時(UTC)から
北/北東の風 10kt
視程: 10km
高度5000ftの雲は散在している
高度25000ftの雲は散在している

TAF: PHKO 181135Z 1812/1912 VRB03KT P6SM SCT250 FM182100 28010KT P6SM SCT050 SCT250 FM190500 03010KT P6SM SCT050 SCT250

4,000以上の空港の気象観測と天気予報(METAR報とTAF報)

利用可能な観測所は地図上に黄色い丸と赤い丸で示す。

丸の上にカーソルを重ねると観測所名を参照できる。

次にクリックすると気象観測と天気予報を参照できる。

マップの切り替え:黒色「×」印の緑ボタンをクリックして拡大、「-」印の緑ボタンをクリックして縮小、緑色の三角印をクリックして隣りの地図に切り替え


METAR-TAF: